Washington Green, Connecticut
Current Conditions -  °F | °C
As of 7:45 AM on Friday 24 Oct 2014 (Local Time) from KOXC Reporting Station
Light Rain Light Rain  
Wind Chill: 44°   Ceiling: 6500
Heat Index: 46°   Visibility: 4mi
Dew Point: 39°   Wind: 5mph
Humidity: 76%   Direction: 330°NNW
Pressure: 29.78"   Gusts: NA
Location:  41.6326°N, 73.2874°W
Report Text: KOXC 241145Z 33004KT 4SM -RA BR FEW015 SCT055 OVC065 08/04 A2978
Loading
Personal Weather Stations






























Interactive Weather Map
Tropical Storm Tracking
New forecast layout! Learn more

10-Day Weather Forecast

Advertisements
Track Severe Weather on mobile